createdAt,value
2019-05-07T00:00:57.370Z,99.90
2019-05-07T00:03:26.803Z,99.90
2019-05-07T00:05:56.160Z,99.90
2019-05-07T00:08:25.469Z,99.90
2019-05-07T00:10:54.840Z,99.90
2019-05-07T00:13:24.140Z,99.90
2019-05-07T00:15:53.444Z,99.90
2019-05-07T00:18:23.082Z,99.90
2019-05-07T00:20:53.010Z,99.90
2019-05-07T00:23:23.398Z,99.90
2019-05-07T00:25:53.016Z,99.90
2019-05-07T00:28:23.102Z,99.90
2019-05-07T00:30:52.604Z,99.90
2019-05-07T00:33:23.528Z,99.90
2019-05-07T00:35:57.165Z,99.90
2019-05-07T00:38:28.103Z,99.90
2019-05-07T00:40:59.046Z,99.90
2019-05-07T00:43:28.723Z,99.90
2019-05-07T00:46:02.560Z,99.90
2019-05-07T00:48:32.825Z,99.90
2019-05-07T00:51:22.474Z,99.90
2019-05-07T00:53:52.078Z,99.90
2019-05-07T00:56:22.359Z,99.90
2019-05-07T00:58:52.706Z,99.90
2019-05-07T01:01:22.830Z,99.90
2019-05-07T01:03:53.348Z,99.90
2019-05-07T01:06:26.379Z,99.90
2019-05-07T01:08:54.268Z,99.90
2019-05-07T01:11:23.586Z,99.90
2019-05-07T01:13:52.890Z,99.90
2019-05-07T01:16:22.379Z,99.90
2019-05-07T01:18:53.751Z,99.90
2019-05-07T01:21:22.840Z,99.90
2019-05-07T01:23:52.367Z,99.90
2019-05-07T01:26:22.133Z,99.90
2019-05-07T01:29:02.950Z,99.90
2019-05-07T01:32:03.193Z,99.90
2019-05-07T01:34:49.464Z,99.90
2019-05-07T01:37:18.871Z,99.90
2019-05-07T01:39:48.223Z,99.90
2019-05-07T01:42:17.536Z,99.90
2019-05-07T01:44:46.933Z,99.90
2019-05-07T01:47:16.273Z,99.90
2019-05-07T01:49:45.587Z,99.90
2019-05-07T01:52:14.925Z,99.90
2019-05-07T01:54:47.174Z,99.90
2019-05-07T01:57:14.488Z,99.90
2019-05-07T01:59:43.737Z,99.90
2019-05-07T02:02:14.737Z,99.90
2019-05-07T02:04:48.614Z,99.90
2019-05-07T02:07:22.681Z,99.90
2019-05-07T02:10:05.853Z,99.90
2019-05-07T02:12:36.879Z,99.90
2019-05-07T02:15:08.270Z,99.90
2019-05-07T02:17:37.590Z,99.90
2019-05-07T02:20:07.144Z,99.90
2019-05-07T02:22:36.491Z,99.90
2019-05-07T02:25:06.880Z,99.90
2019-05-07T02:27:36.202Z,99.90
2019-05-07T02:30:06.148Z,99.90
2019-05-07T02:32:35.455Z,99.90
2019-05-07T02:35:05.766Z,99.90
2019-05-07T02:37:48.691Z,99.90
2019-05-07T02:40:22.957Z,99.90
2019-05-07T02:42:54.034Z,99.90
2019-05-07T02:45:25.403Z,99.90
2019-05-07T02:47:54.751Z,99.90
2019-05-07T02:50:32.901Z,99.90
2019-05-07T02:53:04.454Z,99.90
2019-05-07T02:55:35.454Z,99.90
2019-05-07T02:58:04.925Z,99.90
2019-05-07T03:00:34.475Z,99.90
2019-05-07T03:03:04.479Z,99.90
2019-05-07T03:05:35.146Z,99.90
2019-05-07T03:08:05.567Z,99.90
2019-05-07T03:10:34.906Z,99.90
2019-05-07T03:13:04.579Z,99.90
2019-05-07T03:15:34.244Z,99.90
2019-05-07T03:18:03.805Z,99.90
2019-05-07T03:20:43.004Z,99.90
2019-05-07T03:23:14.074Z,99.90
2019-05-07T03:26:04.184Z,99.90
2019-05-07T03:28:35.283Z,99.90
2019-05-07T03:31:16.679Z,99.90
2019-05-07T03:33:48.040Z,99.90
2019-05-07T03:36:17.895Z,99.90
2019-05-07T03:38:47.237Z,99.90
2019-05-07T03:41:16.569Z,99.90
2019-05-07T03:43:45.887Z,99.90
2019-05-07T03:46:16.855Z,99.90
2019-05-07T03:48:46.983Z,99.90
2019-05-07T03:51:16.356Z,99.90
2019-05-07T03:53:45.682Z,99.90
2019-05-07T03:56:15.069Z,99.90
2019-05-07T03:58:44.398Z,99.90
2019-05-07T04:01:14.255Z,99.90
2019-05-07T04:03:45.013Z,99.90
2019-05-07T04:06:14.488Z,99.90
2019-05-07T04:08:44.865Z,99.90
2019-05-07T04:11:14.447Z,99.90
2019-05-07T04:13:44.591Z,99.90
2019-05-07T04:16:14.511Z,99.90
2019-05-07T04:18:44.441Z,99.90
2019-05-07T04:21:14.512Z,99.90
2019-05-07T04:23:44.534Z,99.90
2019-05-07T04:26:16.235Z,99.90
2019-05-07T04:28:49.939Z,99.90
2019-05-07T04:31:19.274Z,99.90
2019-05-07T04:33:48.590Z,99.90
2019-05-07T04:36:22.765Z,99.90
2019-05-07T04:38:53.156Z,99.90
2019-05-07T04:41:23.306Z,99.90
2019-05-07T04:43:54.080Z,99.90
2019-05-07T04:46:23.930Z,99.90
2019-05-07T04:48:53.353Z,99.90
2019-05-07T04:51:24.327Z,99.90
2019-05-07T04:53:54.338Z,99.90
2019-05-07T04:56:24.120Z,99.90
2019-05-07T04:58:53.485Z,99.90
2019-05-07T05:01:24.825Z,99.90
2019-05-07T05:03:54.327Z,99.90
2019-05-07T05:06:24.305Z,99.90
2019-05-07T05:08:56.180Z,99.90
2019-05-07T05:11:24.956Z,99.90
2019-05-07T05:13:54.296Z,99.90
2019-05-07T05:16:24.814Z,99.90
2019-05-07T05:18:56.334Z,99.90
2019-05-07T05:21:43.819Z,99.90
2019-05-07T05:24:14.774Z,99.90
2019-05-07T05:26:44.156Z,99.90
2019-05-07T05:29:13.519Z,99.90
2019-05-07T05:31:42.852Z,99.90
2019-05-07T05:34:13.075Z,99.90
2019-05-07T05:36:42.732Z,99.90
2019-05-07T05:39:13.137Z,99.90
2019-05-07T05:41:44.840Z,99.90
2019-05-07T05:44:15.045Z,99.90
2019-05-07T05:46:44.334Z,99.90
2019-05-07T05:49:13.617Z,99.90
2019-05-07T05:51:47.039Z,99.90
2019-05-07T05:54:33.954Z,99.90
2019-05-07T05:57:16.850Z,99.90
2019-05-07T05:59:51.786Z,99.90
2019-05-07T06:02:32.531Z,99.90
2019-05-07T06:05:03.680Z,99.90
2019-05-07T06:07:34.722Z,99.90
2019-05-07T06:10:09.569Z,99.90
2019-05-07T06:12:42.627Z,99.90
2019-05-07T06:15:16.376Z,99.90
2019-05-07T06:17:59.362Z,99.90
2019-05-07T06:20:32.094Z,99.90
2019-05-07T06:23:15.237Z,99.90
2019-05-07T06:25:46.332Z,99.90
2019-05-07T06:28:15.743Z,99.80
2019-05-07T06:30:45.095Z,99.60
2019-05-07T06:33:14.569Z,99.50
2019-05-07T06:35:43.927Z,99.80
2019-05-07T06:38:14.275Z,99.00
2019-05-07T06:40:48.075Z,98.80
2019-05-07T06:43:19.140Z,98.60
2019-05-07T06:45:52.896Z,98.10
2019-05-07T06:48:34.634Z,99.00
2019-05-07T06:50:57.280Z,98.30
2019-05-07T06:53:33.262Z,97.70
2019-05-07T06:56:03.200Z,98.20
2019-05-07T06:58:48.898Z,97.10
2019-05-07T07:01:22.824Z,96.10
2019-05-07T07:04:02.383Z,96.20
2019-05-07T07:06:47.863Z,96.80
2019-05-07T07:09:34.793Z,95.00
2019-05-07T07:12:08.545Z,95.30
2019-05-07T07:14:37.892Z,96.00
2019-05-07T07:17:07.285Z,94.10
2019-05-07T07:19:36.695Z,93.40
2019-05-07T07:22:06.141Z,92.10
2019-05-07T07:24:35.462Z,91.90
2019-05-07T07:27:04.863Z,92.80
2019-05-07T07:29:52.353Z,92.60
2019-05-07T07:32:23.525Z,91.90
2019-05-07T07:34:53.292Z,91.80
2019-05-07T07:37:35.999Z,92.10
2019-05-07T07:40:12.859Z,91.90
2019-05-07T07:42:42.702Z,91.30
2019-05-07T07:45:18.796Z,90.00
2019-05-07T07:47:48.238Z,88.90
2019-05-07T07:50:17.750Z,88.00
2019-05-07T07:52:47.115Z,87.00
2019-05-07T07:55:18.193Z,85.60
2019-05-07T07:58:02.759Z,82.80
2019-05-07T08:00:42.880Z,81.60
2019-05-07T08:03:09.194Z,81.10
2019-05-07T08:05:38.551Z,80.50
2019-05-07T08:08:08.880Z,79.50
2019-05-07T08:10:38.264Z,79.00
2019-05-07T08:13:07.678Z,79.10
2019-05-07T08:15:37.051Z,79.60
2019-05-07T08:18:06.377Z,79.30
2019-05-07T08:20:35.734Z,79.30
2019-05-07T08:23:05.113Z,79.10
2019-05-07T08:25:49.515Z,78.40
2019-05-07T08:28:20.015Z,78.60
2019-05-07T08:30:59.764Z,74.20
2019-05-07T08:33:32.258Z,76.80
2019-05-07T08:36:14.293Z,72.70
2019-05-07T08:38:52.766Z,71.10
2019-05-07T08:41:24.188Z,69.00
2019-05-07T08:44:08.289Z,74.60
2019-05-07T08:46:44.531Z,74.80
2019-05-07T08:49:15.513Z,70.30
2019-05-07T08:51:46.498Z,71.00
2019-05-07T08:54:15.826Z,67.80
2019-05-07T08:56:45.187Z,70.90
2019-05-07T08:59:14.705Z,69.40
2019-05-07T09:01:44.048Z,71.50
2019-05-07T09:04:13.993Z,70.40
2019-05-07T09:06:43.319Z,72.60
2019-05-07T09:09:14.391Z,73.90
2019-05-07T09:11:43.125Z,73.40
2019-05-07T09:14:12.776Z,71.10
2019-05-07T09:16:42.889Z,67.90
2019-05-07T09:19:13.119Z,68.90
2019-05-07T09:21:43.014Z,71.00
2019-05-07T09:24:13.492Z,71.50
2019-05-07T09:27:02.922Z,67.70
2019-05-07T09:29:48.879Z,64.00
2019-05-07T09:32:22.619Z,65.10
2019-05-07T09:34:55.354Z,62.10
2019-05-07T09:37:26.316Z,61.30
2019-05-07T09:39:55.759Z,62.50
2019-05-07T09:42:25.158Z,62.10
2019-05-07T09:44:54.489Z,62.20
2019-05-07T09:47:23.952Z,62.40
2019-05-07T09:50:03.896Z,63.30
2019-05-07T09:52:24.344Z,62.60
2019-05-07T09:54:53.690Z,63.50
2019-05-07T09:57:30.925Z,65.00
2019-05-07T09:59:54.132Z,63.90
2019-05-07T10:02:24.704Z,65.50
2019-05-07T10:04:54.143Z,66.80
2019-05-07T10:07:23.560Z,67.00
2019-05-07T10:09:53.063Z,66.30
2019-05-07T10:12:24.075Z,65.30
2019-05-07T10:14:53.450Z,67.80
2019-05-07T10:17:40.860Z,70.50
2019-05-07T10:20:19.153Z,68.70
2019-05-07T10:22:43.200Z,71.70
2019-05-07T10:25:12.885Z,74.10
2019-05-07T10:27:43.357Z,74.80
2019-05-07T10:30:13.315Z,73.20
2019-05-07T10:32:42.757Z,74.00
2019-05-07T10:35:13.077Z,74.80
2019-05-07T10:37:42.556Z,74.80
2019-05-07T10:40:13.833Z,75.10
2019-05-07T10:42:44.645Z,75.80
2019-05-07T10:45:33.853Z,78.50
2019-05-07T10:48:11.675Z,77.30
2019-05-07T10:50:44.195Z,78.50
2019-05-07T10:53:13.667Z,79.60
2019-05-07T10:55:45.519Z,79.90
2019-05-07T10:58:14.124Z,79.30
2019-05-07T11:00:43.446Z,82.00
2019-05-07T11:03:13.705Z,80.90
2019-05-07T11:05:42.968Z,83.40
2019-05-07T11:08:12.326Z,83.30
2019-05-07T11:10:43.304Z,82.90
2019-05-07T11:13:12.957Z,83.20
2019-05-07T11:15:44.129Z,80.50
2019-05-07T11:18:17.273Z,76.20
2019-05-07T11:20:50.273Z,74.00
2019-05-07T11:23:17.616Z,72.40
2019-05-07T11:25:46.938Z,68.80
2019-05-07T11:28:16.330Z,67.10
2019-05-07T11:30:45.743Z,63.60
2019-05-07T11:33:15.059Z,59.60
2019-05-07T11:35:44.393Z,57.20
2019-05-07T11:38:20.774Z,57.50
2019-05-07T11:40:44.804Z,56.20
2019-05-07T11:43:18.440Z,57.20
2019-05-07T11:45:49.459Z,56.60
2019-05-07T11:48:21.990Z,56.40
2019-05-07T11:51:03.359Z,56.90
2019-05-07T11:53:32.550Z,54.00
2019-05-07T11:56:02.653Z,54.80
2019-05-07T11:58:32.628Z,54.00
2019-05-07T12:01:12.308Z,53.70
2019-05-07T12:03:42.907Z,57.60
2019-05-07T12:06:12.543Z,56.50
2019-05-07T12:08:49.783Z,55.30
2019-05-07T12:11:12.998Z,57.40
2019-05-07T12:13:42.751Z,57.40
2019-05-07T12:16:14.207Z,62.50
2019-05-07T12:18:44.990Z,56.50
2019-05-07T12:21:20.739Z,57.70
2019-05-07T12:23:45.352Z,56.60
2019-05-07T12:26:14.852Z,55.60
2019-05-07T12:28:44.217Z,53.40
2019-05-07T12:31:27.052Z,56.00
2019-05-07T12:34:11.694Z,57.40
2019-05-07T12:36:40.820Z,58.80
2019-05-07T12:39:12.561Z,57.80
2019-05-07T12:41:43.373Z,58.70
2019-05-07T12:44:13.488Z,60.60
2019-05-07T12:46:43.630Z,61.70
2019-05-07T12:49:13.905Z,61.10
2019-05-07T12:51:45.727Z,59.40
2019-05-07T12:54:22.753Z,59.00
2019-05-07T12:56:52.148Z,59.00
2019-05-07T12:59:21.832Z,56.30
2019-05-07T13:01:56.034Z,55.10
2019-05-07T13:04:27.010Z,54.70
2019-05-07T13:07:16.354Z,52.50
2019-05-07T13:09:45.708Z,55.50
2019-05-07T13:12:15.451Z,55.60
2019-05-07T13:14:45.423Z,56.10
2019-05-07T13:17:15.698Z,58.80
2019-05-07T13:19:45.769Z,60.00
2019-05-07T13:22:16.096Z,58.20
2019-05-07T13:24:46.066Z,62.30
2019-05-07T13:27:16.230Z,62.30
2019-05-07T13:29:46.659Z,61.30
2019-05-07T13:32:17.701Z,59.90
2019-05-07T13:34:47.241Z,60.30
2019-05-07T13:37:25.054Z,63.90
2019-05-07T13:40:05.768Z,62.50
2019-05-07T13:42:39.281Z,62.50
2019-05-07T13:45:28.863Z,61.90
2019-05-07T13:48:02.726Z,63.60
2019-05-07T13:50:32.566Z,66.40
2019-05-07T13:53:01.790Z,63.40
2019-05-07T13:55:32.387Z,63.40
2019-05-07T13:58:01.918Z,65.40
2019-05-07T14:00:33.873Z,65.50
2019-05-07T14:03:03.403Z,65.80
2019-05-07T14:05:32.819Z,65.10
2019-05-07T14:08:04.545Z,68.10
2019-05-07T14:10:33.837Z,66.20
2019-05-07T14:13:12.625Z,64.70
2019-05-07T14:15:35.017Z,66.00
2019-05-07T14:18:04.726Z,66.80
2019-05-07T14:20:34.069Z,65.80
2019-05-07T14:23:03.409Z,66.30
2019-05-07T14:25:32.755Z,67.10
2019-05-07T14:28:02.352Z,68.10
2019-05-07T14:30:32.779Z,66.30
2019-05-07T14:33:06.026Z,67.00
2019-05-07T14:35:53.861Z,64.80
2019-05-07T14:38:27.500Z,63.60
2019-05-07T14:40:56.838Z,64.10
2019-05-07T14:43:32.388Z,64.10
2019-05-07T14:46:02.861Z,62.10
2019-05-07T14:48:32.327Z,58.40
2019-05-07T14:51:02.232Z,58.60
2019-05-07T14:53:32.810Z,57.60
2019-05-07T14:56:02.439Z,56.30
2019-05-07T14:58:31.973Z,56.70
2019-05-07T15:01:02.484Z,56.20
2019-05-07T15:03:32.243Z,55.00
2019-05-07T15:06:02.218Z,54.40
2019-05-07T15:08:32.532Z,53.30
2019-05-07T15:11:02.766Z,52.60
2019-05-07T15:13:32.432Z,51.00
2019-05-07T15:16:03.078Z,52.50
2019-05-07T15:18:42.807Z,53.10
2019-05-07T15:21:13.036Z,51.20
2019-05-07T15:23:42.616Z,52.60
2019-05-07T15:26:12.835Z,53.50
2019-05-07T15:28:44.008Z,56.30
2019-05-07T15:31:16.865Z,57.20
2019-05-07T15:33:46.170Z,57.70
2019-05-07T15:36:15.579Z,57.70
2019-05-07T15:38:44.979Z,57.20
2019-05-07T15:41:14.567Z,60.20
2019-05-07T15:43:46.221Z,58.50
2019-05-07T15:46:15.036Z,58.80
2019-05-07T15:48:44.434Z,60.30
2019-05-07T15:51:16.660Z,58.70
2019-05-07T15:53:51.900Z,59.80
2019-05-07T15:56:21.889Z,60.10
2019-05-07T15:58:51.742Z,61.00
2019-05-07T16:01:22.162Z,60.80
2019-05-07T16:03:54.879Z,60.70
2019-05-07T16:06:22.896Z,63.20
2019-05-07T16:08:53.874Z,61.60
2019-05-07T16:11:23.396Z,62.60
2019-05-07T16:14:06.679Z,63.90
2019-05-07T16:16:40.245Z,61.70
2019-05-07T16:19:14.056Z,62.10
2019-05-07T16:21:43.456Z,62.40
2019-05-07T16:24:12.830Z,62.00
2019-05-07T16:26:42.639Z,64.50
2019-05-07T16:29:13.216Z,63.70
2019-05-07T16:31:43.493Z,65.50
2019-05-07T16:34:13.010Z,65.80
2019-05-07T16:36:42.729Z,64.50
2019-05-07T16:39:12.268Z,65.20
2019-05-07T16:41:42.320Z,64.30
2019-05-07T16:44:12.267Z,65.80
2019-05-07T16:46:42.367Z,66.30
2019-05-07T16:49:12.294Z,65.20
2019-05-07T16:51:44.573Z,64.20
2019-05-07T16:54:13.517Z,63.90
2019-05-07T16:57:02.952Z,66.80
2019-05-07T16:59:32.450Z,67.20
2019-05-07T17:02:03.614Z,67.90
2019-05-07T17:04:32.166Z,68.20
2019-05-07T17:07:03.064Z,68.30
2019-05-07T17:09:35.207Z,66.40
2019-05-07T17:12:04.288Z,67.50
2019-05-07T17:14:33.528Z,65.80
2019-05-07T17:17:03.555Z,64.90
2019-05-07T17:19:32.884Z,65.20
2019-05-07T17:22:02.820Z,66.60
2019-05-07T17:24:33.296Z,65.90
2019-05-07T17:27:02.618Z,66.40
2019-05-07T17:29:32.195Z,67.80
2019-05-07T17:32:02.665Z,66.60
2019-05-07T17:34:32.004Z,65.50
2019-05-07T17:37:02.056Z,67.80
2019-05-07T17:39:32.539Z,69.30
2019-05-07T17:42:02.474Z,70.00
2019-05-07T17:44:32.541Z,68.90
2019-05-07T17:47:02.502Z,70.40
2019-05-07T17:49:34.935Z,69.30
2019-05-07T17:52:03.914Z,69.60
2019-05-07T17:54:34.300Z,69.30
2019-05-07T17:57:03.625Z,69.50
2019-05-07T17:59:33.223Z,67.70
2019-05-07T18:02:22.027Z,69.70
2019-05-07T18:04:54.525Z,68.90
2019-05-07T18:07:22.606Z,68.60
2019-05-07T18:09:53.099Z,69.30
2019-05-07T18:12:22.631Z,70.00
2019-05-07T18:14:52.802Z,71.60
2019-05-07T18:17:30.122Z,72.70
2019-05-07T18:19:59.437Z,70.70
2019-05-07T18:22:28.796Z,71.00
2019-05-07T18:24:58.205Z,72.90
2019-05-07T18:27:27.622Z,72.00
2019-05-07T18:29:57.004Z,72.40
2019-05-07T18:32:28.082Z,74.80
2019-05-07T18:34:57.457Z,75.80
2019-05-07T18:37:26.810Z,75.30
2019-05-07T18:39:56.223Z,76.60
2019-05-07T18:42:25.539Z,77.20
2019-05-07T18:44:54.887Z,79.50
2019-05-07T18:47:24.284Z,79.90
2019-05-07T18:49:53.635Z,80.30
2019-05-07T18:52:23.118Z,81.00
2019-05-07T18:54:52.462Z,83.70
2019-05-07T18:57:22.336Z,84.10
2019-05-07T18:59:53.118Z,82.90
2019-05-07T19:02:22.985Z,83.20
2019-05-07T19:04:52.313Z,83.80
2019-05-07T19:07:23.107Z,86.40
2019-05-07T19:09:51.927Z,86.50
2019-05-07T19:12:22.955Z,87.20
2019-05-07T19:14:52.363Z,87.90
2019-05-07T19:17:21.925Z,88.60
2019-05-07T19:19:53.758Z,89.00
2019-05-07T19:22:23.126Z,90.30
2019-05-07T19:24:52.817Z,90.20
2019-05-07T19:27:22.256Z,90.70
2019-05-07T19:29:51.571Z,90.80
2019-05-07T19:32:40.223Z,92.20
2019-05-07T19:35:09.617Z,92.30
2019-05-07T19:37:39.018Z,92.10
2019-05-07T19:40:09.321Z,92.20
2019-05-07T19:42:39.324Z,92.40
2019-05-07T19:45:09.702Z,92.70
2019-05-07T19:47:39.568Z,93.30
2019-05-07T19:50:12.422Z,93.40
2019-05-07T19:52:42.618Z,93.80
2019-05-07T19:55:11.513Z,94.10
2019-05-07T19:57:42.687Z,94.40
2019-05-07T20:00:12.531Z,94.50
2019-05-07T20:02:45.004Z,94.90
2019-05-07T20:05:14.380Z,95.20
2019-05-07T20:07:43.739Z,95.60
2019-05-07T20:10:14.815Z,95.50
2019-05-07T20:12:44.147Z,96.00
2019-05-07T20:15:14.594Z,95.80
2019-05-07T20:17:43.901Z,95.90
2019-05-07T20:20:13.309Z,95.90
2019-05-07T20:22:42.695Z,96.10
2019-05-07T20:25:18.671Z,96.30
2019-05-07T20:27:43.215Z,96.40
2019-05-07T20:30:12.730Z,96.70
2019-05-07T20:32:42.887Z,96.80
2019-05-07T20:35:12.419Z,96.80
2019-05-07T20:37:42.565Z,97.20
2019-05-07T20:40:12.791Z,97.20
2019-05-07T20:42:42.957Z,97.50
2019-05-07T20:45:13.100Z,97.60
2019-05-07T20:47:43.234Z,97.70
2019-05-07T20:50:13.497Z,97.80
2019-05-07T20:52:43.553Z,97.90
2019-05-07T20:55:34.173Z,98.10
2019-05-07T20:58:03.643Z,98.20
2019-05-07T21:00:32.947Z,98.20
2019-05-07T21:03:20.546Z,98.40
2019-05-07T21:05:52.909Z,98.50
2019-05-07T21:08:23.075Z,98.60
2019-05-07T21:10:53.640Z,98.80
2019-05-07T21:13:30.816Z,98.90
2019-05-07T21:15:53.500Z,99.10
2019-05-07T21:18:23.439Z,99.50
2019-05-07T21:20:53.199Z,99.70
2019-05-07T21:23:23.239Z,99.80
2019-05-07T21:25:53.179Z,99.80
2019-05-07T21:28:23.654Z,99.90
2019-05-07T21:30:52.976Z,99.90
2019-05-07T21:33:23.039Z,99.80
2019-05-07T21:35:52.590Z,99.90
2019-05-07T21:38:22.545Z,99.90
2019-05-07T21:40:52.040Z,99.90
2019-05-07T21:43:22.122Z,99.90
2019-05-07T21:45:52.940Z,99.90
2019-05-07T21:48:22.554Z,99.90
2019-05-07T21:50:52.101Z,99.90
2019-05-07T21:53:23.139Z,99.90
2019-05-07T21:56:01.916Z,99.90
2019-05-07T21:58:39.655Z,99.90
2019-05-07T22:01:12.519Z,99.90
2019-05-07T22:03:45.883Z,99.90
2019-05-07T22:06:15.228Z,99.90
2019-05-07T22:08:44.524Z,99.90
2019-05-07T22:11:13.829Z,99.90
2019-05-07T22:13:43.645Z,99.90
2019-05-07T22:16:13.281Z,99.90
2019-05-07T22:18:42.865Z,99.90
2019-05-07T22:21:12.644Z,99.90
2019-05-07T22:23:42.885Z,99.90
2019-05-07T22:26:23.183Z,99.90
2019-05-07T22:28:43.501Z,99.90
2019-05-07T22:31:16.904Z,99.90
2019-05-07T22:34:02.023Z,99.90
2019-05-07T22:36:32.699Z,99.90
2019-05-07T22:39:09.502Z,99.90
2019-05-07T22:41:42.331Z,99.90
2019-05-07T22:44:12.129Z,99.90
2019-05-07T22:46:42.133Z,99.90
2019-05-07T22:49:12.229Z,99.90
2019-05-07T22:51:41.767Z,99.90
2019-05-07T22:54:11.819Z,99.90
2019-05-07T22:56:57.876Z,99.90
2019-05-07T22:59:27.173Z,99.90
2019-05-07T23:01:56.473Z,99.30
2019-05-07T23:04:25.803Z,99.20
2019-05-07T23:06:55.163Z,99.40
2019-05-07T23:09:25.523Z,99.30
2019-05-07T23:11:55.038Z,98.90
2019-05-07T23:14:24.397Z,98.90
2019-05-07T23:16:55.360Z,99.00
2019-05-07T23:19:24.897Z,99.00
2019-05-07T23:21:54.195Z,98.70
2019-05-07T23:24:24.968Z,98.70
2019-05-07T23:26:54.521Z,98.20
2019-05-07T23:29:23.816Z,98.20
2019-05-07T23:31:55.323Z,98.50
2019-05-07T23:34:24.606Z,98.60
2019-05-07T23:36:53.980Z,98.70
2019-05-07T23:39:25.762Z,98.50
2019-05-07T23:41:56.703Z,98.50
2019-05-07T23:44:25.990Z,98.40
2019-05-07T23:46:55.302Z,98.30
2019-05-07T23:49:24.733Z,97.80
2019-05-07T23:51:54.858Z,98.20
2019-05-07T23:54:25.059Z,97.00
2019-05-07T23:57:06.025Z,96.60
2019-05-07T23:59:26.207Z,96.40
